createdAt,value
2023-02-27T00:00:14.720Z,5.50
2023-02-27T00:02:43.648Z,5.50
2023-02-27T00:05:11.392Z,5.40
2023-02-27T00:07:38.797Z,5.40
2023-02-27T00:10:07.556Z,5.40
2023-02-27T00:12:39.005Z,5.40
2023-02-27T00:15:11.173Z,5.40
2023-02-27T00:17:38.624Z,5.40
2023-02-27T00:20:07.327Z,5.40
2023-02-27T00:22:34.187Z,5.40
2023-02-27T00:25:01.178Z,5.40
2023-02-27T00:27:27.946Z,5.40
2023-02-27T00:29:54.725Z,5.40
2023-02-27T00:32:21.643Z,5.40
2023-02-27T00:34:48.712Z,5.40
2023-02-27T00:37:15.916Z,5.40
2023-02-27T00:39:43.264Z,5.40
2023-02-27T00:42:10.031Z,5.40
2023-02-27T00:44:36.830Z,5.40
2023-02-27T00:47:03.615Z,5.40
2023-02-27T00:49:30.371Z,5.30
2023-02-27T00:51:57.132Z,5.30
2023-02-27T00:54:24.087Z,5.30
2023-02-27T00:56:50.944Z,5.40
2023-02-27T00:59:18.020Z,5.30
2023-02-27T01:01:45.477Z,5.30
2023-02-27T01:04:12.432Z,5.30
2023-02-27T01:06:39.294Z,5.30
2023-02-27T01:09:06.320Z,5.30
2023-02-27T01:11:33.263Z,5.20
2023-02-27T01:14:00.717Z,5.20
2023-02-27T01:16:28.057Z,5.20
2023-02-27T01:18:54.931Z,5.20
2023-02-27T01:21:24.137Z,5.20
2023-02-27T01:23:51.143Z,5.20
2023-02-27T01:26:19.659Z,5.10
2023-02-27T01:28:46.638Z,5.10
2023-02-27T01:31:13.867Z,5.10
2023-02-27T01:33:40.762Z,5.10
2023-02-27T01:36:08.147Z,5.00
2023-02-27T01:38:35.437Z,5.00
2023-02-27T01:41:02.806Z,5.00
2023-02-27T01:43:32.522Z,5.00
2023-02-27T01:46:00.756Z,5.00
2023-02-27T01:48:37.656Z,5.00
2023-02-27T01:51:10.070Z,4.90
2023-02-27T01:53:39.814Z,4.90
2023-02-27T01:56:17.875Z,4.90
2023-02-27T01:58:47.702Z,4.90
2023-02-27T02:01:15.347Z,4.90
2023-02-27T02:03:47.964Z,4.90
2023-02-27T02:06:14.800Z,4.90
2023-02-27T02:08:45.188Z,4.90
2023-02-27T02:11:13.747Z,4.90
2023-02-27T02:13:41.644Z,4.80
2023-02-27T02:16:23.510Z,4.90
2023-02-27T02:19:11.822Z,4.80
2023-02-27T02:22:13.675Z,4.80
2023-02-27T02:25:02.496Z,4.80
2023-02-27T02:27:38.524Z,4.70
2023-02-27T02:30:36.940Z,4.80
2023-02-27T02:33:29.780Z,4.70
2023-02-27T02:36:08.814Z,4.70
2023-02-27T02:38:59.602Z,4.70
2023-02-27T02:41:54.519Z,4.70
2023-02-27T02:44:30.339Z,4.60
2023-02-27T02:47:10.114Z,4.60
2023-02-27T02:49:49.098Z,4.60
2023-02-27T02:52:43.928Z,4.60
2023-02-27T02:55:25.589Z,4.60
2023-02-27T02:57:57.133Z,4.60
2023-02-27T03:00:40.481Z,4.60
2023-02-27T03:03:15.189Z,4.50
2023-02-27T03:05:53.337Z,4.60
2023-02-27T03:08:27.030Z,4.50
2023-02-27T03:11:05.346Z,4.50
2023-02-27T03:13:45.588Z,4.50
2023-02-27T03:16:21.487Z,4.50
2023-02-27T03:19:08.080Z,4.50
2023-02-27T03:21:41.456Z,4.50
2023-02-27T03:24:12.915Z,4.50
2023-02-27T03:26:42.928Z,4.50
2023-02-27T03:29:17.366Z,4.50
2023-02-27T03:31:57.002Z,4.50
2023-02-27T03:34:35.686Z,4.50
2023-02-27T03:37:18.420Z,4.50
2023-02-27T03:39:54.542Z,4.50
2023-02-27T03:42:34.888Z,4.50
2023-02-27T03:45:42.239Z,4.50
2023-02-27T03:48:09.315Z,4.50
2023-02-27T03:50:37.668Z,4.50
2023-02-27T03:53:15.340Z,4.50
2023-02-27T03:55:46.439Z,4.40
2023-02-27T03:58:14.032Z,4.40
2023-02-27T04:00:41.102Z,4.40
2023-02-27T04:03:08.153Z,4.40
2023-02-27T04:05:35.317Z,4.40
2023-02-27T04:08:07.216Z,4.40
2023-02-27T04:10:55.958Z,4.40
2023-02-27T04:13:25.504Z,4.30
2023-02-27T04:16:18.042Z,4.30
2023-02-27T04:18:47.634Z,4.30
2023-02-27T04:21:26.827Z,4.30
2023-02-27T04:23:59.719Z,4.30
2023-02-27T04:26:35.866Z,4.30
2023-02-27T04:29:05.096Z,4.30
2023-02-27T04:31:50.451Z,4.30
2023-02-27T04:34:29.008Z,4.20
2023-02-27T04:37:06.481Z,4.30
2023-02-27T04:39:41.974Z,4.20
2023-02-27T04:42:34.860Z,4.20
2023-02-27T04:45:05.941Z,4.20
2023-02-27T04:47:43.580Z,4.20
2023-02-27T04:50:19.589Z,4.20
2023-02-27T04:52:57.247Z,4.20
2023-02-27T04:55:27.223Z,4.20
2023-02-27T04:58:00.383Z,4.20
2023-02-27T05:00:29.685Z,4.20
2023-02-27T05:03:13.827Z,4.20
2023-02-27T05:05:44.868Z,4.20
2023-02-27T05:08:28.150Z,4.20
2023-02-27T05:10:59.954Z,4.10
2023-02-27T05:13:59.298Z,4.20
2023-02-27T05:16:48.743Z,4.10
2023-02-27T05:19:17.666Z,4.10
2023-02-27T05:22:26.381Z,4.10
2023-02-27T05:25:13.940Z,4.10
2023-02-27T05:27:59.768Z,4.10
2023-02-27T05:30:40.636Z,4.10
2023-02-27T05:33:11.287Z,4.10
2023-02-27T05:35:54.475Z,4.10
2023-02-27T05:38:27.657Z,4.00
2023-02-27T05:41:00.559Z,4.10
2023-02-27T05:43:33.237Z,4.00
2023-02-27T05:46:05.758Z,4.00
2023-02-27T05:48:47.596Z,4.00
2023-02-27T05:51:16.616Z,4.00
2023-02-27T05:53:51.053Z,4.00
2023-02-27T05:56:21.641Z,4.00
2023-02-27T05:58:59.504Z,4.00
2023-02-27T06:01:26.425Z,4.00
2023-02-27T06:03:53.810Z,4.00
2023-02-27T06:06:22.500Z,4.00
2023-02-27T06:08:49.342Z,4.00
2023-02-27T06:11:17.854Z,4.00
2023-02-27T06:13:44.678Z,4.00
2023-02-27T06:16:13.428Z,4.00
2023-02-27T06:18:40.355Z,3.90
2023-02-27T06:21:07.152Z,3.90
2023-02-27T06:23:34.056Z,3.90
2023-02-27T06:26:01.033Z,3.90
2023-02-27T06:28:27.872Z,3.90
2023-02-27T06:30:57.203Z,3.90
2023-02-27T06:33:26.004Z,3.90
2023-02-27T06:35:53.622Z,3.90
2023-02-27T06:38:20.437Z,3.80
2023-02-27T06:40:47.435Z,3.80
2023-02-27T06:43:14.913Z,3.80
2023-02-27T06:45:41.796Z,3.80
2023-02-27T06:48:10.009Z,3.80
2023-02-27T06:50:36.855Z,3.70
2023-02-27T06:53:04.343Z,3.70
2023-02-27T06:55:31.133Z,3.70
2023-02-27T06:57:57.950Z,3.70
2023-02-27T07:00:24.904Z,3.70
2023-02-27T07:02:51.716Z,3.70
2023-02-27T07:05:18.581Z,3.70
2023-02-27T07:07:45.429Z,3.70
2023-02-27T07:10:14.160Z,3.70
2023-02-27T07:12:41.276Z,3.70
2023-02-27T07:15:09.217Z,3.70
2023-02-27T07:17:36.327Z,3.70
2023-02-27T07:20:06.662Z,3.70
2023-02-27T07:22:33.791Z,3.80
2023-02-27T07:25:00.634Z,3.80
2023-02-27T07:27:27.559Z,3.80
2023-02-27T07:29:54.355Z,3.80
2023-02-27T07:32:21.289Z,3.90
2023-02-27T07:34:48.125Z,3.90
2023-02-27T07:37:14.940Z,4.00
2023-02-27T07:39:41.821Z,4.00
2023-02-27T07:42:08.585Z,4.10
2023-02-27T07:44:35.663Z,4.20
2023-02-27T07:47:02.541Z,4.20
2023-02-27T07:49:29.406Z,4.30
2023-02-27T07:51:56.558Z,4.40
2023-02-27T07:54:23.398Z,4.60
2023-02-27T07:56:50.251Z,4.70
2023-02-27T07:59:17.101Z,4.80
2023-02-27T08:01:43.949Z,4.90
2023-02-27T08:04:10.836Z,5.00
2023-02-27T08:06:37.641Z,5.10
2023-02-27T08:09:04.504Z,5.20
2023-02-27T08:11:31.280Z,5.30
2023-02-27T08:14:00.874Z,5.40
2023-02-27T08:16:29.132Z,5.50
2023-02-27T08:18:56.791Z,5.60
2023-02-27T08:21:23.586Z,5.70
2023-02-27T08:23:50.365Z,5.70
2023-02-27T08:26:17.189Z,5.80
2023-02-27T08:28:44.065Z,5.90
2023-02-27T08:31:10.953Z,6.00
2023-02-27T08:33:37.799Z,6.00
2023-02-27T08:36:04.849Z,6.10
2023-02-27T08:38:31.683Z,6.20
2023-02-27T08:40:58.456Z,6.30
2023-02-27T08:43:25.285Z,6.40
2023-02-27T08:45:52.189Z,6.50
2023-02-27T08:48:19.135Z,6.50
2023-02-27T08:50:46.586Z,6.60
2023-02-27T08:53:14.019Z,6.70
2023-02-27T08:55:42.549Z,6.70
2023-02-27T08:58:10.407Z,6.80
2023-02-27T09:00:37.257Z,6.90
2023-02-27T09:03:04.223Z,7.00
2023-02-27T09:05:35.166Z,7.00
2023-02-27T09:08:03.153Z,7.10
2023-02-27T09:10:33.007Z,7.20
2023-02-27T09:13:00.329Z,7.20
2023-02-27T09:15:28.327Z,7.30
2023-02-27T09:17:58.776Z,7.30
2023-02-27T09:20:25.583Z,7.40
2023-02-27T09:22:52.375Z,7.40
2023-02-27T09:25:19.174Z,7.50
2023-02-27T09:27:45.945Z,7.50
2023-02-27T09:30:13.155Z,7.60
2023-02-27T09:32:40.045Z,7.70
2023-02-27T09:35:07.514Z,7.70
2023-02-27T09:37:34.312Z,7.80
2023-02-27T09:40:01.360Z,7.90
2023-02-27T09:42:45.471Z,8.00
2023-02-27T09:45:26.639Z,8.10
2023-02-27T09:48:01.866Z,8.20
2023-02-27T09:50:43.662Z,8.30
2023-02-27T09:53:31.342Z,8.40
2023-02-27T09:56:15.684Z,8.50
2023-02-27T09:58:59.742Z,8.60
2023-02-27T10:01:35.232Z,8.70
2023-02-27T10:04:26.232Z,8.80
2023-02-27T10:07:17.309Z,8.90
2023-02-27T10:09:51.347Z,8.90
2023-02-27T10:13:15.020Z,9.00
2023-02-27T10:15:47.223Z,9.10
2023-02-27T10:18:28.975Z,9.10
2023-02-27T10:21:06.723Z,9.20
2023-02-27T10:23:42.590Z,9.30
2023-02-27T10:26:22.795Z,9.40
2023-02-27T10:28:49.593Z,9.40
2023-02-27T10:31:22.790Z,9.60
2023-02-27T10:33:50.830Z,9.60
2023-02-27T10:36:32.520Z,9.60
2023-02-27T10:39:10.509Z,9.80
2023-02-27T10:41:39.929Z,9.80
2023-02-27T10:44:07.121Z,9.90
2023-02-27T10:46:40.590Z,9.90
2023-02-27T10:49:18.323Z,9.90
2023-02-27T10:51:47.068Z,10.00
2023-02-27T10:54:23.920Z,10.00
2023-02-27T10:56:56.960Z,10.00
2023-02-27T10:59:39.163Z,10.10
2023-02-27T11:02:17.840Z,10.10
2023-02-27T11:04:53.886Z,10.20
2023-02-27T11:07:33.785Z,10.20
2023-02-27T11:10:23.516Z,10.20
2023-02-27T11:13:06.681Z,10.30
2023-02-27T11:15:37.285Z,10.30
2023-02-27T11:18:24.520Z,10.30
2023-02-27T11:20:51.771Z,10.30
2023-02-27T11:23:24.910Z,10.30
2023-02-27T11:26:08.505Z,10.10
2023-02-27T11:28:35.357Z,10.10
2023-02-27T11:31:15.454Z,9.90
2023-02-27T11:33:51.615Z,9.80
2023-02-27T11:36:18.775Z,9.60
2023-02-27T11:38:56.512Z,9.40
2023-02-27T11:41:35.868Z,9.30
2023-02-27T11:44:05.493Z,9.20
2023-02-27T11:46:47.744Z,9.10
2023-02-27T11:49:41.685Z,9.00
2023-02-27T11:52:31.627Z,8.80
2023-02-27T11:55:03.327Z,8.80
2023-02-27T11:57:34.864Z,8.70
2023-02-27T12:00:33.199Z,8.60
2023-02-27T12:03:10.951Z,8.50
2023-02-27T12:05:46.817Z,8.40
2023-02-27T12:08:43.076Z,8.40
2023-02-27T12:11:29.154Z,8.30
2023-02-27T12:14:05.393Z,8.30
2023-02-27T12:16:43.748Z,8.20
2023-02-27T12:19:34.941Z,8.20
2023-02-27T12:22:13.500Z,8.10
2023-02-27T12:24:47.470Z,8.20
2023-02-27T12:27:17.384Z,8.10
2023-02-27T12:29:56.061Z,8.10
2023-02-27T12:32:38.925Z,8.10
2023-02-27T12:35:19.537Z,8.10
2023-02-27T12:37:46.421Z,8.00
2023-02-27T12:40:18.824Z,8.00
2023-02-27T12:43:03.765Z,8.00
2023-02-27T12:45:53.540Z,8.00
2023-02-27T12:48:38.659Z,8.00
2023-02-27T12:51:27.309Z,8.10
2023-02-27T12:54:27.638Z,8.00
2023-02-27T12:57:02.097Z,8.00
2023-02-27T12:59:47.614Z,8.00
2023-02-27T13:02:36.037Z,8.00
2023-02-27T13:05:36.156Z,8.00
2023-02-27T13:08:28.348Z,8.00
2023-02-27T13:11:13.263Z,7.90
2023-02-27T13:14:04.085Z,7.90
2023-02-27T13:16:40.716Z,7.90
2023-02-27T13:19:13.401Z,8.00
2023-02-27T13:21:47.458Z,8.00
2023-02-27T13:24:33.986Z,8.00
2023-02-27T13:27:04.136Z,8.00
2023-02-27T13:29:40.907Z,8.00
2023-02-27T13:32:43.710Z,8.00
2023-02-27T13:35:17.561Z,8.00
2023-02-27T13:37:51.716Z,8.00
2023-02-27T13:40:39.660Z,8.00
2023-02-27T13:43:51.536Z,8.00
2023-02-27T13:46:27.146Z,8.10
2023-02-27T13:48:59.682Z,8.10
2023-02-27T13:51:35.470Z,8.00
2023-02-27T13:54:15.060Z,8.00
2023-02-27T13:56:43.550Z,8.00
2023-02-27T13:59:19.227Z,8.10
2023-02-27T14:02:00.229Z,8.10
2023-02-27T14:04:34.118Z,8.10
2023-02-27T14:07:04.634Z,8.10
2023-02-27T14:09:37.340Z,8.10
2023-02-27T14:12:06.583Z,8.10
2023-02-27T14:14:36.453Z,8.10
2023-02-27T14:17:04.205Z,8.20
2023-02-27T14:19:46.569Z,8.20
2023-02-27T14:22:16.314Z,8.20
2023-02-27T14:25:02.505Z,8.20
2023-02-27T14:27:32.984Z,8.20
2023-02-27T14:30:04.703Z,8.30
2023-02-27T14:32:35.442Z,8.30
2023-02-27T14:35:05.051Z,8.30
2023-02-27T14:37:32.897Z,8.30
2023-02-27T14:40:03.296Z,8.30
2023-02-27T14:42:48.010Z,8.40
2023-02-27T14:45:18.982Z,8.40
2023-02-27T14:47:47.122Z,8.40
2023-02-27T14:50:37.248Z,8.50
2023-02-27T14:53:06.189Z,8.50
2023-02-27T14:55:37.192Z,8.50
2023-02-27T14:58:10.065Z,8.50
2023-02-27T15:00:50.505Z,8.50
2023-02-27T15:03:24.212Z,8.50
2023-02-27T15:05:54.305Z,8.60
2023-02-27T15:08:25.115Z,8.50
2023-02-27T15:10:57.081Z,8.50
2023-02-27T15:13:36.646Z,8.50
2023-02-27T15:16:24.593Z,8.50
2023-02-27T15:18:54.606Z,8.50
2023-02-27T15:21:24.495Z,8.50
2023-02-27T15:23:55.992Z,8.50
2023-02-27T15:26:23.707Z,8.50
2023-02-27T15:28:50.997Z,8.60
2023-02-27T15:31:21.890Z,8.60
2023-02-27T15:33:50.273Z,8.60
2023-02-27T15:36:27.661Z,8.60
2023-02-27T15:39:08.619Z,8.60
2023-02-27T15:41:36.193Z,8.60
2023-02-27T15:44:04.165Z,8.60
2023-02-27T15:46:32.165Z,8.60
2023-02-27T15:48:59.720Z,8.60
2023-02-27T15:51:28.874Z,8.60
2023-02-27T15:53:59.564Z,8.60
2023-02-27T15:56:32.598Z,8.60
2023-02-27T15:59:01.434Z,8.60
2023-02-27T16:01:32.743Z,8.60
2023-02-27T16:04:02.195Z,8.60
2023-02-27T16:06:35.524Z,8.50
2023-02-27T16:09:24.520Z,8.50
2023-02-27T16:12:10.910Z,8.50
2023-02-27T16:14:45.406Z,8.50
2023-02-27T16:17:26.950Z,8.50
2023-02-27T16:19:55.296Z,8.50
2023-02-27T16:22:22.744Z,8.50
2023-02-27T16:24:50.180Z,8.50
2023-02-27T16:27:26.611Z,8.50
2023-02-27T16:30:02.437Z,8.50
2023-02-27T16:32:36.117Z,8.50
2023-02-27T16:35:19.643Z,8.50
2023-02-27T16:37:47.965Z,8.50
2023-02-27T16:40:26.557Z,8.50
2023-02-27T16:42:53.808Z,8.50
2023-02-27T16:45:26.538Z,8.50
2023-02-27T16:47:59.320Z,8.50
2023-02-27T16:50:33.498Z,8.50
2023-02-27T16:53:00.367Z,8.40
2023-02-27T16:55:27.900Z,8.40
2023-02-27T16:57:54.763Z,8.40
2023-02-27T17:00:22.693Z,8.40
2023-02-27T17:02:49.897Z,8.40
2023-02-27T17:05:17.814Z,8.40
2023-02-27T17:07:44.794Z,8.30
2023-02-27T17:10:16.714Z,8.30
2023-02-27T17:12:44.144Z,8.30
2023-02-27T17:15:11.417Z,8.30
2023-02-27T17:17:38.274Z,8.30
2023-02-27T17:20:07.257Z,8.30
2023-02-27T17:22:39.496Z,8.20
2023-02-27T17:25:07.841Z,8.20
2023-02-27T17:27:35.184Z,8.20
2023-02-27T17:30:02.208Z,8.20
2023-02-27T17:32:29.177Z,8.20
2023-02-27T17:34:56.500Z,8.20
2023-02-27T17:37:23.466Z,8.20
2023-02-27T17:39:50.243Z,8.20
2023-02-27T17:42:18.673Z,8.10
2023-02-27T17:44:48.734Z,8.10
2023-02-27T17:47:15.772Z,8.10
2023-02-27T17:49:42.895Z,8.10
2023-02-27T17:52:09.837Z,8.00
2023-02-27T17:54:36.953Z,8.00
2023-02-27T17:57:04.918Z,8.10
2023-02-27T17:59:31.832Z,8.00
2023-02-27T18:01:59.169Z,8.00
2023-02-27T18:04:26.403Z,8.00
2023-02-27T18:06:53.498Z,7.90
2023-02-27T18:09:20.356Z,7.90
2023-02-27T18:11:47.193Z,7.90
2023-02-27T18:14:13.938Z,7.90
2023-02-27T18:16:41.435Z,8.00
2023-02-27T18:19:08.333Z,7.90
2023-02-27T18:21:35.432Z,7.90
2023-02-27T18:24:02.549Z,7.90
2023-02-27T18:26:31.759Z,7.90
2023-02-27T18:29:07.580Z,7.90
2023-02-27T18:31:41.106Z,7.80
2023-02-27T18:34:08.149Z,7.80
2023-02-27T18:36:35.986Z,7.90
2023-02-27T18:39:05.014Z,7.80
2023-02-27T18:41:32.449Z,7.80
2023-02-27T18:43:59.376Z,7.80
2023-02-27T18:46:26.996Z,7.80
2023-02-27T18:48:53.991Z,7.80
2023-02-27T18:51:21.045Z,7.80
2023-02-27T18:53:49.505Z,7.80
2023-02-27T18:56:18.854Z,7.70
2023-02-27T18:58:46.322Z,7.80
2023-02-27T19:01:20.227Z,7.70
2023-02-27T19:03:47.120Z,7.70
2023-02-27T19:06:13.900Z,7.70
2023-02-27T19:08:40.759Z,7.70
2023-02-27T19:11:07.565Z,7.60
2023-02-27T19:13:34.378Z,7.60
2023-02-27T19:16:04.708Z,7.60
2023-02-27T19:18:31.963Z,7.60
2023-02-27T19:21:03.940Z,7.60
2023-02-27T19:23:30.903Z,7.50
2023-02-27T19:26:01.474Z,7.60
2023-02-27T19:28:30.839Z,7.60
2023-02-27T19:30:58.330Z,7.60
2023-02-27T19:33:25.310Z,7.60
2023-02-27T19:35:52.385Z,7.50
2023-02-27T19:38:19.311Z,7.50
2023-02-27T19:40:46.109Z,7.50
2023-02-27T19:43:15.283Z,7.50
2023-02-27T19:45:42.458Z,7.50
2023-02-27T19:48:11.311Z,7.50
2023-02-27T19:50:40.231Z,7.40
2023-02-27T19:53:07.144Z,7.40
2023-02-27T19:55:33.922Z,7.40
2023-02-27T19:58:01.465Z,7.40
2023-02-27T20:00:28.400Z,7.40
2023-02-27T20:02:55.189Z,7.40
2023-02-27T20:05:22.020Z,7.40
2023-02-27T20:07:48.825Z,7.40
2023-02-27T20:10:15.869Z,7.40
2023-02-27T20:12:42.883Z,7.30
2023-02-27T20:15:12.997Z,7.30
2023-02-27T20:17:41.999Z,7.30
2023-02-27T20:20:10.905Z,7.30
2023-02-27T20:22:38.211Z,7.20
2023-02-27T20:25:05.257Z,7.20
2023-02-27T20:27:33.914Z,7.20
2023-02-27T20:30:01.358Z,7.20
2023-02-27T20:32:28.280Z,7.10
2023-02-27T20:34:56.674Z,7.10
2023-02-27T20:37:23.800Z,7.10
2023-02-27T20:39:51.130Z,7.00
2023-02-27T20:42:17.908Z,7.00
2023-02-27T20:44:44.783Z,7.00
2023-02-27T20:47:11.578Z,7.00
2023-02-27T20:49:38.896Z,6.90
2023-02-27T20:52:05.978Z,6.90
2023-02-27T20:54:32.937Z,6.90
2023-02-27T20:56:59.717Z,6.90
2023-02-27T20:59:26.739Z,6.90
2023-02-27T21:01:54.498Z,6.90
2023-02-27T21:04:43.172Z,6.80
2023-02-27T21:07:11.753Z,6.80
2023-02-27T21:09:38.932Z,6.80
2023-02-27T21:12:06.633Z,6.70
2023-02-27T21:14:33.905Z,6.70
2023-02-27T21:17:01.408Z,6.70
2023-02-27T21:19:28.277Z,6.70
2023-02-27T21:21:55.140Z,6.70
2023-02-27T21:24:22.162Z,6.70
2023-02-27T21:26:49.436Z,6.70
2023-02-27T21:29:19.749Z,6.70
2023-02-27T21:31:49.018Z,6.70
2023-02-27T21:34:21.658Z,6.70
2023-02-27T21:36:50.764Z,6.70
2023-02-27T21:39:23.716Z,6.70
2023-02-27T21:41:50.845Z,6.70
2023-02-27T21:44:20.616Z,6.60
2023-02-27T21:46:47.682Z,6.60
2023-02-27T21:49:17.556Z,6.60
2023-02-27T21:51:44.672Z,6.60
2023-02-27T21:54:13.491Z,6.60
2023-02-27T21:56:41.665Z,6.60
2023-02-27T21:59:09.194Z,6.50
2023-02-27T22:01:37.365Z,6.60
2023-02-27T22:04:04.634Z,6.50
2023-02-27T22:06:33.973Z,6.50
2023-02-27T22:09:04.804Z,6.50
2023-02-27T22:11:33.135Z,6.50
2023-02-27T22:14:00.251Z,6.50
2023-02-27T22:16:27.889Z,6.50
2023-02-27T22:18:55.071Z,6.50
2023-02-27T22:21:25.166Z,6.40
2023-02-27T22:23:52.548Z,6.40
2023-02-27T22:26:25.678Z,6.40
2023-02-27T22:28:55.326Z,6.40
2023-02-27T22:31:40.296Z,6.40
2023-02-27T22:34:12.045Z,6.40
2023-02-27T22:36:41.192Z,6.40
2023-02-27T22:39:08.492Z,6.40
2023-02-27T22:41:37.874Z,6.40
2023-02-27T22:44:05.440Z,6.40
2023-02-27T22:46:35.034Z,6.40
2023-02-27T22:49:08.725Z,6.30
2023-02-27T22:51:36.017Z,6.30
2023-02-27T22:54:05.949Z,6.30
2023-02-27T22:56:34.555Z,6.30
2023-02-27T22:59:02.286Z,6.30
2023-02-27T23:01:32.123Z,6.30
2023-02-27T23:04:01.701Z,6.30
2023-02-27T23:06:31.540Z,6.30
2023-02-27T23:08:59.562Z,6.30
2023-02-27T23:11:26.764Z,6.30
2023-02-27T23:13:53.760Z,6.30
2023-02-27T23:16:21.163Z,6.30
2023-02-27T23:18:56.876Z,6.20
2023-02-27T23:21:29.718Z,6.20
2023-02-27T23:23:58.046Z,6.20
2023-02-27T23:26:28.784Z,6.20
2023-02-27T23:28:58.769Z,6.20
2023-02-27T23:31:25.726Z,6.10
2023-02-27T23:33:52.527Z,6.10
2023-02-27T23:36:19.391Z,6.10
2023-02-27T23:38:48.868Z,6.10
2023-02-27T23:41:17.528Z,6.00
2023-02-27T23:43:45.054Z,6.00
2023-02-27T23:46:14.314Z,6.00
2023-02-27T23:48:41.700Z,5.90
2023-02-27T23:51:09.935Z,5.90
2023-02-27T23:53:38.908Z,5.90
2023-02-27T23:56:24.392Z,5.90
2023-02-27T23:59:03.215Z,5.80
